createdAt,value
2018-06-25T15:52:34.175Z,3.13
2018-06-25T15:55:01.882Z,3.10
2018-06-25T15:57:31.468Z,4.10
2018-06-25T16:02:27.418Z,3.40
2018-06-25T16:05:16.148Z,4.33
2018-06-25T16:07:44.101Z,3.73
2018-06-25T16:10:12.311Z,3.50
2018-06-25T16:12:40.132Z,3.37
2018-06-25T16:15:07.824Z,3.33
2018-06-25T16:17:35.535Z,3.77
2018-06-25T16:20:03.450Z,4.27
2018-06-25T16:22:32.670Z,3.30
2018-06-25T16:25:00.370Z,3.30
2018-06-25T16:27:29.553Z,4.97
2018-06-25T16:29:57.276Z,8.00
2018-06-25T16:45:20.410Z,7.13
2018-06-25T16:47:50.354Z,6.43
2018-06-25T16:50:18.158Z,6.30
2018-06-25T16:52:45.848Z,6.20
2018-06-25T16:55:17.949Z,4.90
2018-06-25T16:57:46.244Z,4.00
2018-06-25T17:00:15.102Z,4.07
2018-06-25T17:12:28.784Z,3.70
2018-06-25T17:14:56.693Z,3.47
2018-06-25T17:17:25.869Z,3.00
2018-06-25T17:19:54.585Z,2.70
2018-06-25T17:22:22.396Z,3.13
2018-06-25T17:24:50.724Z,3.50
2018-06-25T17:27:21.183Z,3.47
2018-06-25T17:29:49.412Z,4.13
2018-06-25T17:32:17.446Z,4.80
2018-06-25T17:34:45.986Z,4.83
2018-06-25T17:37:14.194Z,4.97
2018-06-25T17:39:42.640Z,5.20
2018-06-25T17:51:56.533Z,4.80
2018-06-25T17:54:24.586Z,5.77
2018-06-25T17:56:52.679Z,5.00
2018-06-25T17:59:20.684Z,5.27
2018-06-25T18:01:49.665Z,4.20
2018-06-25T18:14:03.161Z,8.43
2018-06-25T18:16:32.412Z,6.33
2018-06-25T18:19:04.316Z,3.77
2018-06-25T18:21:34.575Z,3.33
2018-06-25T18:24:03.742Z,3.13
2018-06-25T18:26:33.044Z,4.03
2018-06-25T18:29:01.214Z,4.60
2018-06-25T18:31:30.835Z,5.20
2018-06-25T18:34:02.581Z,7.20
2018-06-25T18:36:31.326Z,9.50
2018-06-25T18:38:59.924Z,9.57
2018-06-25T18:41:29.178Z,8.60
2018-06-25T18:43:59.266Z,8.80
2018-06-25T18:46:31.687Z,7.40
2018-06-25T18:49:00.876Z,7.10
2018-06-25T18:51:29.402Z,7.13
2018-06-25T18:53:59.533Z,7.43
2018-06-25T18:56:27.586Z,6.83
2018-06-25T18:58:56.678Z,6.80
2018-06-25T19:01:24.670Z,6.53
2018-06-25T19:03:54.383Z,6.40
2018-06-25T19:06:22.878Z,6.87
2018-06-25T19:08:51.632Z,7.73
2018-06-25T19:11:20.087Z,8.27
2018-06-25T19:13:47.973Z,8.80
2018-06-25T19:16:16.699Z,7.73
2018-06-25T19:18:45.109Z,8.73
2018-06-25T19:21:13.125Z,8.70
2018-06-25T19:23:42.125Z,7.60
2018-06-25T19:26:10.115Z,8.93
2018-06-25T19:28:38.860Z,10.27
2018-06-25T19:31:08.851Z,9.67
2018-06-25T19:33:36.636Z,10.67
2018-06-25T19:36:05.245Z,8.17
2018-06-25T19:38:33.451Z,10.07
2018-06-25T19:41:01.221Z,9.37
2018-06-25T19:43:30.073Z,8.87
2018-06-25T19:45:57.662Z,9.80
2018-06-25T19:48:26.420Z,10.33
2018-06-25T19:50:54.121Z,11.13
2018-06-25T19:53:22.292Z,10.53
2018-06-25T19:55:50.668Z,14.70
2018-06-25T19:58:23.644Z,15.90
2018-06-25T20:00:51.338Z,12.07
2018-06-25T20:03:20.056Z,11.80
2018-06-25T20:05:49.364Z,12.80
2018-06-25T20:08:18.022Z,14.83
2018-06-25T20:10:46.572Z,14.60
2018-06-25T20:13:14.301Z,23.97
2018-06-25T20:15:42.379Z,20.73
2018-06-25T20:18:10.440Z,20.00
2018-06-25T20:30:23.851Z,22.37
2018-06-25T20:32:52.462Z,20.83
2018-06-25T20:35:23.204Z,17.87
2018-06-25T20:47:36.453Z,17.03
2018-06-25T20:50:07.256Z,15.50
2018-06-25T20:52:42.131Z,9.33
2018-06-25T20:55:11.849Z,12.53
2018-06-25T20:57:39.748Z,17.23
2018-06-25T21:00:09.215Z,21.60
2018-06-25T21:02:37.493Z,24.20
2018-06-25T21:05:05.664Z,22.57
2018-06-25T21:07:34.873Z,22.67
2018-06-25T21:10:03.943Z,11.47
2018-06-25T21:12:31.929Z,7.13
2018-06-25T21:15:00.015Z,4.80
2018-06-25T21:17:30.588Z,3.83
2018-06-25T21:29:45.584Z,2.80
2018-06-25T21:32:13.876Z,2.40
2018-06-25T21:34:42.834Z,2.73
2018-06-25T21:37:11.356Z,2.70
2018-06-25T21:39:39.483Z,3.67
2018-06-25T21:42:08.382Z,3.97
2018-06-25T21:44:36.699Z,3.60
2018-06-25T21:47:04.949Z,4.40
2018-06-25T21:49:34.305Z,4.67
2018-06-25T21:52:03.188Z,5.77
2018-06-25T21:54:31.658Z,5.97
2018-06-25T21:57:00.787Z,5.70
2018-06-25T21:59:29.373Z,6.23
2018-06-25T22:01:58.084Z,6.33
2018-06-25T22:04:27.506Z,6.67
2018-06-25T22:06:56.388Z,7.30
2018-06-25T22:09:24.411Z,7.17
2018-06-25T22:11:53.339Z,7.53
2018-06-25T22:14:21.630Z,7.20
2018-06-25T22:16:50.028Z,6.13
2018-06-25T22:19:17.757Z,6.27
2018-06-25T22:21:46.258Z,5.63
2018-06-25T22:33:54.319Z,6.17
2018-06-25T22:36:22.173Z,6.63
2018-06-25T22:38:50.157Z,7.07
2018-06-25T22:41:18.228Z,6.83
2018-06-25T22:43:47.788Z,7.00
2018-06-25T22:46:16.253Z,7.00
2018-06-25T22:48:45.292Z,6.50
2018-06-25T22:51:13.995Z,6.90
2018-06-25T22:53:42.598Z,7.00
2018-06-25T22:56:11.668Z,5.40
2018-06-25T22:58:40.184Z,4.77
2018-06-25T23:01:10.765Z,4.27
2018-06-25T23:06:13.409Z,4.20
2018-06-25T23:08:41.211Z,3.50
2018-06-25T23:11:09.350Z,3.40
2018-06-25T23:13:38.129Z,3.43
2018-06-25T23:16:08.862Z,3.57
2018-06-25T23:18:38.402Z,3.23
2018-06-25T23:21:07.391Z,2.77
2018-06-25T23:23:35.942Z,2.90
2018-06-25T23:26:06.084Z,2.53
2018-06-25T23:28:34.825Z,2.83
2018-06-25T23:31:03.346Z,2.90
2018-06-25T23:33:33.279Z,2.80
2018-06-25T23:36:04.816Z,2.73
2018-06-25T23:38:32.534Z,3.37
2018-06-25T23:41:01.173Z,3.97
2018-06-25T23:56:24.309Z,3.23
2018-06-25T23:58:53.060Z,2.87
